createdAt,value
2018-09-05T00:01:45.150Z,28.50
2018-09-05T00:04:13.422Z,25.63
2018-09-05T00:06:41.761Z,25.87
2018-09-05T00:09:10.265Z,26.10
2018-09-05T00:11:39.360Z,29.37
2018-09-05T00:14:08.201Z,28.23
2018-09-05T00:16:36.654Z,27.63
2018-09-05T00:19:05.371Z,28.17
2018-09-05T00:21:33.650Z,29.13
2018-09-05T00:24:01.960Z,26.87
2018-09-05T00:26:30.228Z,25.23
2018-09-05T00:28:58.500Z,25.60
2018-09-05T00:31:26.786Z,23.17
2018-09-05T00:33:55.064Z,22.23
2018-09-05T00:36:23.358Z,22.23
2018-09-05T00:38:51.663Z,21.93
2018-09-05T00:41:19.943Z,21.43
2018-09-05T00:43:48.231Z,21.30
2018-09-05T00:46:16.637Z,22.63
2018-09-05T00:48:44.902Z,20.73
2018-09-05T00:51:13.202Z,21.23
2018-09-05T00:53:41.514Z,20.40
2018-09-05T00:56:09.803Z,20.67
2018-09-05T00:58:38.098Z,21.97
2018-09-05T01:01:06.372Z,20.47
2018-09-05T01:03:34.638Z,21.40
2018-09-05T01:06:02.907Z,20.77
2018-09-05T01:08:31.202Z,21.73
2018-09-05T01:10:59.483Z,21.67
2018-09-05T01:13:27.761Z,23.47
2018-09-05T01:15:56.072Z,22.53
2018-09-05T01:18:24.362Z,26.43
2018-09-05T01:20:52.642Z,25.57
2018-09-05T01:23:20.923Z,24.63
2018-09-05T01:25:49.207Z,26.20
2018-09-05T01:28:17.532Z,25.97
2018-09-05T01:30:45.800Z,27.57
2018-09-05T01:33:14.094Z,36.33
2018-09-05T01:35:42.370Z,28.47
2018-09-05T01:38:10.651Z,31.90
2018-09-05T01:40:38.918Z,37.10
2018-09-05T01:43:07.244Z,25.97
2018-09-05T01:45:35.506Z,26.07
2018-09-05T01:48:03.815Z,25.90
2018-09-05T01:50:37.556Z,23.83
2018-09-05T01:53:05.864Z,24.10
2018-09-05T01:55:34.168Z,23.43
2018-09-05T01:58:02.442Z,23.53
2018-09-05T02:00:34.177Z,22.57
2018-09-05T02:03:03.185Z,22.57
2018-09-05T02:05:31.465Z,23.67
2018-09-05T02:08:00.687Z,22.47
2018-09-05T02:10:29.266Z,22.93
2018-09-05T02:12:57.568Z,27.20
2018-09-05T02:15:25.951Z,25.27
2018-09-05T02:17:54.230Z,25.73
2018-09-05T02:20:22.628Z,24.93
2018-09-05T02:22:51.122Z,25.63
2018-09-05T02:25:19.392Z,25.03
2018-09-05T02:27:47.710Z,24.90
2018-09-05T02:30:16.004Z,23.83
2018-09-05T02:32:44.299Z,26.97
2018-09-05T02:35:12.595Z,26.93
2018-09-05T02:37:41.377Z,26.13
2018-09-05T02:40:09.703Z,25.33
2018-09-05T02:42:38.154Z,32.43
2018-09-05T02:45:06.476Z,25.20
2018-09-05T02:47:35.026Z,26.43
2018-09-05T02:50:03.494Z,24.27
2018-09-05T02:52:32.252Z,26.43
2018-09-05T02:55:00.530Z,28.37
2018-09-05T02:57:28.789Z,26.67
2018-09-05T02:59:57.049Z,28.53
2018-09-05T03:02:25.306Z,27.60
2018-09-05T03:04:53.664Z,28.77
2018-09-05T03:07:21.938Z,27.63
2018-09-05T03:09:50.192Z,28.60
2018-09-05T03:12:19.616Z,27.87
2018-09-05T03:14:48.559Z,26.13
2018-09-05T03:17:16.820Z,27.23
2018-09-05T03:19:45.091Z,27.37
2018-09-05T03:22:13.355Z,28.23
2018-09-05T03:24:41.681Z,27.13
2018-09-05T03:27:09.941Z,27.73
2018-09-05T03:29:38.230Z,26.63
2018-09-05T03:32:06.544Z,27.27
2018-09-05T03:34:34.781Z,28.40
2018-09-05T03:37:03.233Z,29.13
2018-09-05T03:39:31.518Z,28.63
2018-09-05T03:41:59.788Z,29.27
2018-09-05T03:44:29.092Z,31.67
2018-09-05T03:46:57.347Z,30.93
2018-09-05T03:49:25.616Z,32.67
2018-09-05T03:51:53.884Z,31.03
2018-09-05T03:54:22.164Z,29.43
2018-09-05T03:56:50.429Z,31.37
2018-09-05T03:59:18.855Z,28.43
2018-09-05T04:01:47.140Z,30.00
2018-09-05T04:04:15.427Z,30.07
2018-09-05T04:06:43.698Z,31.03
2018-09-05T04:09:12.028Z,29.77
2018-09-05T04:11:40.360Z,32.30
2018-09-05T04:14:08.641Z,33.23
2018-09-05T04:16:36.919Z,30.07
2018-09-05T04:19:05.202Z,30.33
2018-09-05T04:21:33.502Z,32.47
2018-09-05T04:24:01.774Z,32.90
2018-09-05T04:26:30.051Z,29.73
2018-09-05T04:28:58.324Z,33.30
2018-09-05T04:31:26.639Z,45.10
2018-09-05T04:33:54.920Z,29.70
2018-09-05T04:36:23.256Z,30.73
2018-09-05T04:38:51.528Z,42.90
2018-09-05T04:41:19.808Z,33.90
2018-09-05T04:43:48.078Z,37.97
2018-09-05T04:46:17.900Z,35.43
2018-09-05T04:48:46.230Z,34.50
2018-09-05T04:51:14.612Z,33.17
2018-09-05T04:53:42.981Z,32.90
2018-09-05T04:56:11.264Z,30.13
2018-09-05T04:58:39.629Z,34.67
2018-09-05T05:01:07.904Z,32.17
2018-09-05T05:03:36.171Z,37.57
2018-09-05T05:06:05.046Z,29.93
2018-09-05T05:08:33.298Z,28.63
2018-09-05T05:11:01.572Z,28.10
2018-09-05T05:13:29.842Z,32.47
2018-09-05T05:15:58.115Z,28.73
2018-09-05T05:18:27.309Z,28.67
2018-09-05T05:20:55.611Z,26.53
2018-09-05T05:23:24.102Z,29.93
2018-09-05T05:25:53.248Z,27.17
2018-09-05T05:28:21.540Z,26.30
2018-09-05T05:30:49.810Z,26.20
2018-09-05T05:33:18.096Z,25.10
2018-09-05T05:35:46.608Z,25.27
2018-09-05T05:38:14.942Z,26.03
2018-09-05T05:40:43.288Z,25.87
2018-09-05T05:43:11.886Z,24.27
2018-09-05T05:45:40.767Z,25.70
2018-09-05T05:48:09.180Z,24.77
2018-09-05T05:50:38.827Z,25.87
2018-09-05T05:53:07.722Z,38.10
2018-09-05T05:55:36.910Z,29.13
2018-09-05T05:58:05.615Z,32.60
2018-09-05T06:00:33.915Z,46.43
2018-09-05T06:03:02.174Z,27.67
2018-09-05T06:05:30.454Z,28.50
2018-09-05T06:07:58.731Z,26.53
2018-09-05T06:10:27.838Z,33.07
2018-09-05T06:12:57.941Z,26.93
2018-09-05T06:15:27.292Z,31.07
2018-09-05T06:17:55.696Z,28.00
2018-09-05T06:20:24.235Z,24.10
2018-09-05T06:22:52.672Z,25.10
2018-09-05T06:25:21.010Z,25.37
2018-09-05T06:27:49.435Z,34.70
2018-09-05T06:30:17.653Z,32.33
2018-09-05T06:32:45.926Z,25.97
2018-09-05T06:35:14.211Z,24.40
2018-09-05T06:37:42.496Z,23.63
2018-09-05T06:40:10.786Z,25.07
2018-09-05T06:42:39.064Z,23.03
2018-09-05T06:45:07.525Z,23.67
2018-09-05T06:47:35.720Z,23.07
2018-09-05T06:50:04.036Z,21.97
2018-09-05T06:52:32.309Z,21.80
2018-09-05T06:55:00.624Z,20.67
2018-09-05T06:57:28.920Z,21.03
2018-09-05T06:59:57.198Z,21.43
2018-09-05T07:02:26.344Z,21.30
2018-09-05T07:04:55.088Z,18.77
2018-09-05T07:07:23.372Z,19.47
2018-09-05T07:09:51.694Z,19.43
2018-09-05T07:12:20.028Z,18.70
2018-09-05T07:14:48.313Z,19.73
2018-09-05T07:17:16.627Z,19.43
2018-09-05T07:19:44.910Z,21.87
2018-09-05T07:22:14.363Z,22.37
2018-09-05T07:24:43.734Z,23.10
2018-09-05T07:27:12.042Z,23.30
2018-09-05T07:29:41.687Z,22.17
2018-09-05T07:32:10.251Z,19.97
2018-09-05T07:34:39.198Z,18.77
2018-09-05T07:37:07.476Z,18.27
2018-09-05T07:39:35.753Z,16.27
2018-09-05T07:42:04.070Z,18.17
2018-09-05T07:44:32.552Z,18.35
2018-09-05T07:47:00.863Z,17.98
2018-09-05T07:49:29.159Z,17.92
2018-09-05T07:51:57.426Z,20.12
2018-09-05T07:54:25.746Z,16.32
2018-09-05T07:56:54.002Z,16.35
2018-09-05T07:59:22.318Z,19.42
2018-09-05T08:01:50.594Z,18.98
2018-09-05T08:04:18.899Z,18.32
2018-09-05T08:06:47.164Z,16.70
2018-09-05T08:09:15.419Z,21.30
2018-09-05T08:11:43.731Z,21.60
2018-09-05T08:14:12.249Z,21.93
2018-09-05T08:16:40.550Z,21.55
2018-09-05T08:19:08.822Z,19.92
2018-09-05T08:21:37.074Z,20.48
2018-09-05T08:24:05.377Z,19.92
2018-09-05T08:26:33.958Z,20.60
2018-09-05T08:29:02.262Z,21.62
2018-09-05T08:31:30.491Z,20.17
2018-09-05T08:33:58.750Z,20.77
2018-09-05T08:36:27.283Z,18.27
2018-09-05T08:38:55.349Z,20.68
2018-09-05T08:41:23.786Z,19.52
2018-09-05T08:43:52.032Z,20.77
2018-09-05T08:46:20.295Z,20.35
2018-09-05T08:48:48.524Z,19.98
2018-09-05T08:51:16.844Z,19.67
2018-09-05T08:53:45.114Z,19.87
2018-09-05T08:56:13.481Z,16.65
2018-09-05T08:58:41.763Z,19.57
2018-09-05T09:01:10.109Z,21.15
2018-09-05T09:03:38.390Z,16.85
2018-09-05T09:06:06.984Z,19.65
2018-09-05T09:08:35.219Z,21.17
2018-09-05T09:11:03.496Z,19.55
2018-09-05T09:13:31.790Z,19.30
2018-09-05T09:16:00.081Z,21.05
2018-09-05T09:18:28.370Z,19.37
2018-09-05T09:20:56.705Z,19.10
2018-09-05T09:23:25.004Z,16.35
2018-09-05T09:25:53.285Z,19.67
2018-09-05T09:28:21.563Z,18.07
2018-09-05T09:30:49.847Z,19.23
2018-09-05T09:33:18.119Z,17.70
2018-09-05T09:35:46.392Z,18.90
2018-09-05T09:38:14.669Z,20.17
2018-09-05T09:40:42.970Z,16.45
2018-09-05T09:43:11.423Z,16.70
2018-09-05T09:45:39.689Z,18.42
2018-09-05T09:48:07.975Z,19.23
2018-09-05T09:50:36.258Z,17.50
2018-09-05T09:53:04.522Z,19.23
2018-09-05T09:55:32.856Z,17.95
2018-09-05T09:58:01.132Z,18.10
2018-09-05T10:00:34.907Z,17.92
2018-09-05T10:03:08.575Z,18.07
2018-09-05T10:05:42.182Z,17.82
2018-09-05T10:08:14.650Z,15.60
2018-09-05T10:10:48.307Z,17.50
2018-09-05T10:13:22.008Z,16.35
2018-09-05T10:16:56.473Z,18.02
2018-09-05T10:19:24.674Z,14.18
2018-09-05T10:21:54.139Z,15.55
2018-09-05T10:24:22.736Z,16.70
2018-09-05T10:26:51.449Z,15.35
2018-09-05T10:29:19.719Z,13.72
2018-09-05T10:31:48.217Z,18.60
2018-09-05T10:34:16.435Z,14.13
2018-09-05T10:36:44.700Z,14.40
2018-09-05T10:39:12.959Z,15.38
2018-09-05T10:41:41.215Z,15.23
2018-09-05T10:44:09.876Z,12.25
2018-09-05T10:46:38.579Z,13.20
2018-09-05T10:49:06.974Z,11.40
2018-09-05T10:51:40.677Z,9.65
2018-09-05T10:54:09.167Z,10.23
2018-09-05T10:56:37.516Z,13.00
2018-09-05T10:59:05.839Z,10.13
2018-09-05T11:01:34.165Z,10.20
2018-09-05T11:04:02.603Z,11.75
2018-09-05T11:06:30.875Z,11.80
2018-09-05T11:08:59.159Z,12.05
2018-09-05T11:11:27.463Z,11.80
2018-09-05T11:13:55.739Z,10.93
2018-09-05T11:16:24.026Z,11.85
2018-09-05T11:18:52.313Z,11.57
2018-09-05T11:21:20.600Z,11.90
2018-09-05T11:23:49.006Z,11.15
2018-09-05T11:26:17.326Z,14.28
2018-09-05T11:28:45.630Z,13.28
2018-09-05T11:31:13.906Z,11.55
2018-09-05T11:33:42.452Z,12.00
2018-09-05T11:36:10.758Z,13.10
2018-09-05T11:38:39.358Z,11.70
2018-09-05T11:41:07.852Z,12.07
2018-09-05T11:43:36.149Z,13.45
2018-09-05T11:46:04.417Z,12.88
2018-09-05T11:48:32.727Z,12.37
2018-09-05T11:51:01.191Z,12.47
2018-09-05T11:53:29.487Z,11.68
2018-09-05T11:55:57.771Z,12.25
2018-09-05T11:58:26.059Z,11.93
2018-09-05T12:00:54.347Z,11.45
2018-09-05T12:03:22.638Z,12.00
2018-09-05T12:05:51.017Z,12.90
2018-09-05T12:08:19.297Z,13.05
2018-09-05T12:10:47.700Z,11.83
2018-09-05T12:13:16.028Z,11.38
2018-09-05T12:15:44.309Z,11.28
2018-09-05T12:18:12.581Z,10.85
2018-09-05T12:20:40.868Z,10.80
2018-09-05T12:23:09.166Z,10.75
2018-09-05T12:25:37.852Z,11.43
2018-09-05T12:28:06.214Z,10.68
2018-09-05T12:30:34.503Z,10.53
2018-09-05T12:33:02.771Z,12.70
2018-09-05T12:35:31.086Z,11.30
2018-09-05T12:37:59.366Z,10.68
2018-09-05T12:40:27.650Z,10.75
2018-09-05T12:42:55.943Z,10.32
2018-09-05T12:45:24.334Z,11.57
2018-09-05T12:47:52.609Z,10.85
2018-09-05T12:50:20.905Z,10.45
2018-09-05T12:52:49.224Z,10.30
2018-09-05T12:55:17.511Z,10.78
2018-09-05T12:57:45.791Z,10.28
2018-09-05T13:00:14.081Z,9.53
2018-09-05T13:02:42.361Z,10.98
2018-09-05T13:05:10.711Z,10.40
2018-09-05T13:07:38.920Z,10.18
2018-09-05T13:10:07.204Z,10.20
2018-09-05T13:12:35.815Z,11.18
2018-09-05T13:15:04.121Z,9.45
2018-09-05T13:17:32.396Z,10.35
2018-09-05T13:20:00.747Z,11.25
2018-09-05T13:22:29.002Z,13.85
2018-09-05T13:24:57.266Z,10.93
2018-09-05T13:27:25.536Z,10.68
2018-09-05T13:29:53.817Z,10.03
2018-09-05T13:32:22.091Z,10.38
2018-09-05T13:34:50.370Z,9.95
2018-09-05T13:37:18.659Z,10.38
2018-09-05T13:39:46.927Z,10.43
2018-09-05T13:42:15.199Z,10.32
2018-09-05T13:44:43.462Z,11.00
2018-09-05T13:47:12.020Z,11.75
2018-09-05T13:49:40.326Z,10.48
2018-09-05T13:52:12.822Z,10.60
2018-09-05T13:54:41.104Z,11.15
2018-09-05T13:57:09.426Z,10.50
2018-09-05T13:59:37.714Z,10.18
2018-09-05T14:02:06.027Z,9.95
2018-09-05T14:04:34.311Z,9.55
2018-09-05T14:07:02.775Z,10.50
2018-09-05T14:09:31.044Z,10.32
2018-09-05T14:11:59.351Z,9.30
2018-09-05T14:14:27.891Z,10.18
2018-09-05T14:16:56.397Z,9.98
2018-09-05T14:19:24.691Z,9.88
2018-09-05T14:21:52.972Z,9.90
2018-09-05T14:24:21.271Z,11.10
2018-09-05T14:26:49.547Z,10.10
2018-09-05T14:29:17.832Z,10.80
2018-09-05T14:31:46.098Z,9.90
2018-09-05T14:34:14.383Z,10.32
2018-09-05T14:36:42.667Z,10.13
2018-09-05T14:39:12.822Z,10.58
2018-09-05T14:41:41.291Z,10.80
2018-09-05T14:44:09.736Z,10.32
2018-09-05T14:46:38.006Z,9.55
2018-09-05T14:49:06.448Z,9.65
2018-09-05T14:51:34.980Z,12.10
2018-09-05T14:54:03.317Z,9.55
2018-09-05T14:56:31.568Z,12.68
2018-09-05T14:58:59.860Z,12.53
2018-09-05T15:01:28.142Z,9.73
2018-09-05T15:03:56.434Z,10.13
2018-09-05T15:06:24.733Z,9.65
2018-09-05T15:08:53.033Z,9.95
2018-09-05T15:11:21.318Z,10.45
2018-09-05T15:13:49.630Z,9.85
2018-09-05T15:16:17.902Z,9.33
2018-09-05T15:18:46.188Z,10.88
2018-09-05T15:21:14.479Z,9.95
2018-09-05T15:23:42.759Z,9.63
2018-09-05T15:26:11.055Z,10.40
2018-09-05T15:28:39.345Z,12.90
2018-09-05T15:31:07.626Z,9.88
2018-09-05T15:33:35.894Z,9.43
2018-09-05T15:36:04.191Z,9.10
2018-09-05T15:38:32.463Z,9.70
2018-09-05T15:41:00.743Z,10.08
2018-09-05T15:43:29.011Z,9.45
2018-09-05T15:45:57.313Z,10.90
2018-09-05T15:48:25.591Z,11.40
2018-09-05T15:50:53.895Z,11.12
2018-09-05T15:53:22.171Z,9.50
2018-09-05T15:55:50.444Z,9.63
2018-09-05T15:58:18.719Z,9.40
2018-09-05T16:00:46.997Z,9.63
2018-09-05T16:03:15.273Z,9.50
2018-09-05T16:05:43.554Z,10.05
2018-09-05T16:08:11.846Z,10.05
2018-09-05T16:10:40.160Z,9.15
2018-09-05T16:13:08.463Z,9.38
2018-09-05T16:15:36.880Z,9.75
2018-09-05T16:18:05.056Z,9.65
2018-09-05T16:20:33.766Z,9.55
2018-09-05T16:23:02.039Z,9.58
2018-09-05T16:25:30.496Z,9.13
2018-09-05T16:27:58.811Z,10.18
2018-09-05T16:30:27.114Z,10.10
2018-09-05T16:32:55.390Z,9.68
2018-09-05T16:35:23.710Z,10.23
2018-09-05T16:37:51.963Z,10.43
2018-09-05T16:40:20.239Z,9.85
2018-09-05T16:42:48.506Z,9.78
2018-09-05T16:45:17.167Z,10.07
2018-09-05T16:47:45.459Z,10.40
2018-09-05T16:50:13.745Z,9.38
2018-09-05T16:52:42.031Z,10.10
2018-09-05T16:55:10.343Z,9.90
2018-09-05T16:57:38.610Z,10.08
2018-09-05T17:00:07.079Z,10.57
2018-09-05T17:02:35.347Z,12.63
2018-09-05T17:05:03.651Z,10.13
2018-09-05T17:07:31.937Z,9.30
2018-09-05T17:10:00.375Z,9.23
2018-09-05T17:12:28.728Z,10.03
2018-09-05T17:14:57.151Z,10.20
2018-09-05T17:17:25.936Z,9.97
2018-09-05T17:19:54.759Z,9.90
2018-09-05T17:22:23.282Z,9.83
2018-09-05T17:24:51.758Z,9.97
2018-09-05T17:27:20.100Z,10.07
2018-09-05T17:29:49.578Z,10.07
2018-09-05T17:32:19.062Z,10.13
2018-09-05T17:34:48.479Z,60.03
2018-09-05T17:37:19.084Z,21.60
2018-09-05T17:39:48.404Z,10.77
2018-09-05T17:42:17.814Z,13.63
2018-09-05T17:44:47.495Z,12.30
2018-09-05T17:47:18.416Z,11.90
2018-09-05T17:49:48.490Z,11.63
2018-09-05T17:52:17.818Z,12.20
2018-09-05T17:54:47.457Z,12.67
2018-09-05T17:57:17.681Z,11.27
2018-09-05T17:59:47.030Z,11.87
2018-09-05T18:02:15.330Z,12.23
2018-09-05T18:04:43.776Z,15.90
2018-09-05T18:07:12.110Z,12.83
2018-09-05T18:09:40.930Z,13.03
2018-09-05T18:12:09.241Z,11.80
2018-09-05T18:14:37.709Z,14.47
2018-09-05T18:17:07.452Z,13.57
2018-09-05T18:19:37.276Z,12.10
2018-09-05T18:22:07.730Z,13.60
2018-09-05T18:24:37.350Z,13.30
2018-09-05T18:27:08.107Z,12.43
2018-09-05T18:29:37.809Z,13.47
2018-09-05T18:32:07.896Z,13.23
2018-09-05T18:34:37.172Z,15.20
2018-09-05T18:37:07.340Z,13.87
2018-09-05T18:39:35.626Z,13.93
2018-09-05T18:42:03.994Z,16.60
2018-09-05T18:44:32.270Z,13.97
2018-09-05T18:47:00.698Z,13.60
2018-09-05T18:49:28.969Z,15.23
2018-09-05T18:51:57.243Z,14.30
2018-09-05T18:54:25.638Z,15.67
2018-09-05T18:56:53.955Z,18.03
2018-09-05T18:59:22.261Z,15.57
2018-09-05T19:01:50.546Z,19.37
2018-09-05T19:04:18.867Z,16.63
2018-09-05T19:06:47.184Z,15.17
2018-09-05T19:09:15.483Z,18.33
2018-09-05T19:11:43.778Z,15.03
2018-09-05T19:14:12.110Z,16.00
2018-09-05T19:16:41.178Z,17.00
2018-09-05T19:19:09.458Z,15.80
2018-09-05T19:21:37.940Z,21.30
2018-09-05T19:24:06.269Z,19.47
2018-09-05T19:26:34.546Z,15.40
2018-09-05T19:29:02.888Z,19.17
2018-09-05T19:31:31.241Z,19.27
2018-09-05T19:33:59.527Z,16.73
2018-09-05T19:36:27.821Z,22.00
2018-09-05T19:38:56.174Z,15.90
2018-09-05T19:41:24.984Z,18.17
2018-09-05T19:43:53.369Z,18.97
2018-09-05T19:46:21.831Z,17.27
2018-09-05T19:48:50.124Z,16.87
2018-09-05T19:51:18.453Z,19.20
2018-09-05T19:53:47.096Z,16.87
2018-09-05T19:56:15.391Z,16.33
2018-09-05T19:58:43.783Z,16.70
2018-09-05T20:01:12.244Z,17.37
2018-09-05T20:03:40.611Z,16.13
2018-09-05T20:06:09.150Z,17.13
2018-09-05T20:08:37.539Z,16.73
2018-09-05T20:11:05.931Z,16.87
2018-09-05T20:13:34.507Z,17.13
2018-09-05T20:16:02.858Z,17.73
2018-09-05T20:18:31.150Z,18.40
2018-09-05T20:20:59.883Z,17.13
2018-09-05T20:23:28.543Z,19.63
2018-09-05T20:25:56.795Z,16.60
2018-09-05T20:28:25.102Z,17.23
2018-09-05T20:30:53.493Z,18.50
2018-09-05T20:33:22.669Z,18.30
2018-09-05T20:35:51.082Z,17.53
2018-09-05T20:38:20.254Z,18.13
2018-09-05T20:40:48.551Z,17.40
2018-09-05T20:43:16.818Z,18.23
2018-09-05T20:45:45.114Z,17.40
2018-09-05T20:48:13.451Z,17.70
2018-09-05T20:50:41.717Z,19.10
2018-09-05T20:53:10.125Z,18.67
2018-09-05T20:55:38.383Z,19.17
2018-09-05T20:58:06.690Z,19.17
2018-09-05T21:00:34.990Z,20.03
2018-09-05T21:03:03.263Z,18.83
2018-09-05T21:05:31.541Z,18.73
2018-09-05T21:07:59.815Z,18.57
2018-09-05T21:10:28.075Z,18.10
2018-09-05T21:12:56.341Z,18.37
2018-09-05T21:15:24.672Z,19.13
2018-09-05T21:17:52.965Z,18.60
2018-09-05T21:20:21.218Z,18.50
2018-09-05T21:22:49.488Z,18.87
2018-09-05T21:25:17.753Z,18.10
2018-09-05T21:27:45.998Z,19.03
2018-09-05T21:30:14.279Z,19.00
2018-09-05T21:32:42.550Z,19.27
2018-09-05T21:35:10.816Z,19.23
2018-09-05T21:37:39.076Z,19.90
2018-09-05T21:40:07.454Z,19.30
2018-09-05T21:42:35.773Z,20.00
2018-09-05T21:45:04.043Z,19.90
2018-09-05T21:47:32.298Z,19.90
2018-09-05T21:50:00.556Z,20.37
2018-09-05T21:52:28.811Z,19.13
2018-09-05T21:54:57.086Z,19.97
2018-09-05T21:57:25.548Z,21.87
2018-09-05T21:59:53.810Z,18.77
2018-09-05T22:02:22.071Z,19.93
2018-09-05T22:04:50.347Z,19.13
2018-09-05T22:07:18.618Z,19.03
2018-09-05T22:09:46.941Z,20.30
2018-09-05T22:12:15.214Z,21.37
2018-09-05T22:14:43.477Z,20.30
2018-09-05T22:17:11.760Z,20.67
2018-09-05T22:19:40.032Z,24.30
2018-09-05T22:22:08.290Z,20.83
2018-09-05T22:24:36.562Z,21.20
2018-09-05T22:27:04.825Z,21.00
2018-09-05T22:29:33.090Z,20.50
2018-09-05T22:32:01.364Z,21.57
2018-09-05T22:34:29.740Z,21.33
2018-09-05T22:36:58.001Z,21.07
2018-09-05T22:39:26.258Z,21.00
2018-09-05T22:41:54.590Z,21.30
2018-09-05T22:44:34.247Z,22.40
2018-09-05T22:47:14.025Z,21.57
2018-09-05T22:49:59.272Z,20.20
2018-09-05T22:52:42.360Z,21.40
2018-09-05T22:55:23.295Z,23.03
2018-09-05T22:58:20.228Z,21.83
2018-09-05T23:00:57.690Z,21.17
2018-09-05T23:03:37.256Z,21.77
2018-09-05T23:06:21.722Z,20.97
2018-09-05T23:08:50.024Z,20.63
2018-09-05T23:11:29.871Z,20.83
2018-09-05T23:14:10.456Z,20.67
2018-09-05T23:20:02.642Z,20.97
2018-09-05T23:22:42.304Z,20.60
2018-09-05T23:25:10.889Z,22.80
2018-09-05T23:27:39.207Z,22.93
2018-09-05T23:30:07.681Z,23.07
2018-09-05T23:32:35.978Z,22.63
2018-09-05T23:35:04.338Z,21.97
2018-09-05T23:37:32.632Z,22.07
2018-09-05T23:40:00.915Z,22.37
2018-09-05T23:42:29.184Z,21.10
2018-09-05T23:44:57.462Z,20.40
2018-09-05T23:47:25.741Z,20.70
2018-09-05T23:49:54.007Z,20.20
2018-09-05T23:52:22.495Z,21.03
2018-09-05T23:54:50.772Z,21.40
2018-09-05T23:57:19.107Z,21.53
2018-09-05T23:59:47.393Z,24.50
